CYKJ

Key Lake Airport

Key Lake, Saskatchewan, Canada
METAR CYKJ 241215Z AUTO 27004KT 2SM -SN BKN020 OVC065 M10/M11 A2937 RMK SLP985
Observed Flight Rules
Feb-24 @ 12:15 UTC (6 minutes ago) Instrument Flight Rules
Wind Visibility Clouds Conditions
270° at 4 knots 2 miles
  • Broken at 2,000' AGL
  • Overcast at 6,500' AGL
  • Light Snow
Temperatures Readings
Current -10°C / 14°F
Dewpoint -11°C / 12°F
Humidity 92%
Altimeter 29.37" Hg
Pressure 998.5 hPa
Elevation 509
METAR CYKJ 241215Z AUTO 27004KT 2SM -SN BKN020 OVC065 M10/M11 A2937 RMK SLP985
Observed Flight Rules
Feb-24 @ 12:15 UTC
(6 minutes ago)
IFR
Wind Visibility
270° at 4 knots 2 miles
Clouds
  • Broken at 2,000' AGL
  • Overcast at 6,500' AGL
Conditions
  • Light Snow
Temperature Dewpoint
-10°C / 14°F -11°C / 12°F
Humidity Altimeter Pressure
92% 29.37" Hg 998.5 hPa